Time;durP1;ratioP1;P1;durP2;ratioP2;P2;SDS_P1;SDS_P2;PMS_P1;PMS_P2;Temp;Humidity;BMP_temperature;BMP_pressure;BME280_temperature;BME280_humidity;BME280_pressure;Samples;Min_cycle;Max_cycle;Signal;HPM_P1;HPM_P2
2021/09/20 00:00:39;;;;;;;7.23;6.53;;;17.40;62.10;;;;;;5095654;28;20463;-76
2021/09/20 00:03:07;;;;;;;7.07;6.53;;;17.40;62.20;;;;;;5095930;28;20444;-76
2021/09/20 00:05:33;;;;;;;7.27;6.67;;;17.40;62.20;;;;;;5095907;28;20451;-76
2021/09/20 00:08:00;;;;;;;7.40;6.70;;;17.30;62.20;;;;;;5095898;28;20439;-76
2021/09/20 00:10:27;;;;;;;7.40;6.80;;;17.30;62.40;;;;;;5095602;28;20483;-76
2021/09/20 00:12:53;;;;;;;7.67;6.73;;;17.20;62.40;;;;;;5095904;28;20428;-75
2021/09/20 00:15:20;;;;;;;6.87;6.27;;;17.20;62.60;;;;;;5095724;28;20844;-76
2021/09/20 00:17:47;;;;;;;6.20;5.70;;;17.10;62.70;;;;;;5095411;28;20451;-76
2021/09/20 00:20:16;;;;;;;7.40;6.80;;;17.10;62.90;;;;;;5095553;28;20455;-76
2021/09/20 00:22:43;;;;;;;7.00;6.40;;;17.10;63.20;;;;;;5095630;28;20439;-76
2021/09/20 00:25:11;;;;;;;6.80;6.20;;;17.10;63.60;;;;;;5095250;28;20936;-75
2021/09/20 00:27:38;;;;;;;7.17;6.57;;;17.00;63.70;;;;;;5095515;28;20444;-75
2021/09/20 00:30:08;;;;;;;7.70;6.90;;;16.90;63.60;;;;;;5095280;28;20447;-75
2021/09/20 00:32:34;;;;;;;7.07;6.40;;;16.90;63.70;;;;;;5095412;28;20439;-76
2021/09/20 00:35:01;;;;;;;6.80;6.30;;;16.90;64.10;;;;;;5095395;28;20443;-75
2021/09/20 00:37:29;;;;;;;7.00;6.37;;;16.80;64.70;;;;;;5095102;28;20444;-75
2021/09/20 00:39:56;;;;;;;8.53;6.60;;;16.80;64.90;;;;;;5095313;28;20439;-75
2021/09/20 00:42:23;;;;;;;7.77;7.07;;;16.80;65.00;;;;;;5095448;28;20460;-75
2021/09/20 00:44:49;;;;;;;7.73;7.13;;;16.80;65.00;;;;;;5095159;28;20451;-75
2021/09/20 00:47:16;;;;;;;7.23;6.63;;;16.70;64.80;;;;;;5095070;28;20451;-75
2021/09/20 00:49:43;;;;;;;8.00;7.30;;;16.70;64.80;;;;;;5095343;28;20440;-75
2021/09/20 00:52:10;;;;;;;8.23;7.43;;;16.70;64.90;;;;;;5094893;28;20519;-76
2021/09/20 00:54:38;;;;;;;7.03;6.40;;;16.60;64.60;;;;;;5094962;28;20799;-75
2021/09/20 00:57:06;;;;;;;7.80;7.20;;;16.60;64.70;;;;;;5095009;28;20797;-75
2021/09/20 00:59:32;;;;;;;7.30;6.70;;;16.60;64.90;;;;;;5095088;28;20446;-76
2021/09/20 01:01:59;;;;;;;7.60;6.90;;;16.50;65.00;;;;;;5094440;28;20996;-75
2021/09/20 01:04:26;;;;;;;7.50;6.80;;;16.50;65.20;;;;;;5094543;28;20455;-75
2021/09/20 01:06:53;;;;;;;6.90;6.30;;;16.40;65.50;;;;;;5095248;28;20468;-75
2021/09/20 01:09:20;;;;;;;7.13;6.47;;;16.40;65.70;;;;;;5094395;28;20787;-76
2021/09/20 01:11:48;;;;;;;7.80;7.00;;;16.40;65.80;;;;;;5094066;28;20498;-75
2021/09/20 01:14:15;;;;;;;7.40;6.80;;;16.30;65.70;;;;;;5094338;28;20972;-76
2021/09/20 01:16:42;;;;;;;7.50;6.90;;;16.30;65.80;;;;;;5094257;28;20948;-75
2021/09/20 01:19:09;;;;;;;6.87;6.27;;;16.20;65.80;;;;;;5094537;28;20451;-74
2021/09/20 01:21:35;;;;;;;8.27;7.37;;;16.20;65.90;;;;;;5094362;28;20471;-75
2021/09/20 01:24:04;;;;;;;7.97;7.20;;;16.20;66.20;;;;;;5094407;28;20454;-75
2021/09/20 01:26:31;;;;;;;8.23;7.53;;;16.20;66.30;;;;;;5094350;28;20441;-75
2021/09/20 01:28:58;;;;;;;8.00;7.00;;;16.10;66.30;;;;;;5093439;28;20956;-74
2021/09/20 01:31:25;;;;;;;8.10;7.40;;;16.10;66.10;;;;;;5094156;28;20485;-75
2021/09/20 01:33:52;;;;;;;8.00;7.40;;;16.10;66.00;;;;;;5094203;28;20444;-74
2021/09/20 01:36:18;;;;;;;8.13;7.47;;;16.00;65.90;;;;;;5094234;28;20444;-74
2021/09/20 01:38:45;;;;;;;7.70;7.00;;;16.00;66.10;;;;;;5093804;28;20443;-75
2021/09/20 01:41:13;;;;;;;8.00;7.40;;;16.00;66.30;;;;;;5094078;28;20459;-75
2021/09/20 01:43:40;;;;;;;7.30;6.70;;;15.90;66.10;;;;;;5094209;28;20447;-75
2021/09/20 01:46:07;;;;;;;7.50;6.80;;;15.90;66.10;;;;;;5094004;28;20451;-75
2021/09/20 01:48:33;;;;;;;7.80;7.00;;;15.90;66.10;;;;;;5093963;28;20448;-75
2021/09/20 01:51:00;;;;;;;8.77;7.70;;;15.80;66.00;;;;;;5093878;28;20478;-75
2021/09/20 01:53:27;;;;;;;7.67;6.80;;;15.80;66.30;;;;;;5093933;28;20450;-76
2021/09/20 01:55:53;;;;;;;8.00;7.20;;;15.80;66.60;;;;;;5093929;28;20444;-75
2021/09/20 01:58:21;;;;;;;8.40;7.70;;;15.70;66.60;;;;;;5093676;28;20443;-75
2021/09/20 02:00:48;;;;;;;12.60;7.77;;;15.70;66.80;;;;;;5093844;28;20464;-75
2021/09/20 02:03:15;;;;;;;8.13;7.33;;;15.70;66.80;;;;;;5093870;28;20810;-75
2021/09/20 02:05:42;;;;;;;7.07;6.47;;;15.70;67.20;;;;;;5093425;28;20956;-75
2021/09/20 02:08:09;;;;;;;8.97;8.20;;;15.70;67.30;;;;;;5093781;28;20473;-75
2021/09/20 02:10:36;;;;;;;7.90;7.20;;;15.60;67.20;;;;;;5093500;28;20480;-76
2021/09/20 02:13:02;;;;;;;8.30;7.60;;;15.60;67.90;;;;;;5093673;28;20444;-75
2021/09/20 02:15:31;;;;;;;8.10;7.50;;;15.60;67.10;;;;;;5093634;28;20439;-74
2021/09/20 02:17:57;;;;;;;7.63;7.03;;;15.60;67.00;;;;;;5093634;28;20443;-74
2021/09/20 02:20:24;;;;;;;8.03;7.33;;;15.60;67.30;;;;;;5093476;28;20467;-75
2021/09/20 02:22:51;;;;;;;8.27;7.60;;;15.50;67.20;;;;;;5093583;28;20440;-75
2021/09/20 02:25:18;;;;;;;8.30;7.60;;;15.50;67.30;;;;;;5093219;28;20937;-76
2021/09/20 02:27:45;;;;;;;9.13;8.30;;;15.40;67.30;;;;;;5093559;28;20429;-76
2021/09/20 02:30:12;;;;;;;8.00;7.30;;;15.40;67.50;;;;;;5093123;28;20436;-75
2021/09/20 02:32:41;;;;;;;7.70;6.63;;;15.30;67.40;;;;;;5093454;28;20478;-75
2021/09/20 02:35:08;;;;;;;7.87;7.17;;;15.20;67.20;;;;;;5093465;28;20452;-75
2021/09/20 02:37:36;;;;;;;7.97;7.37;;;15.10;66.90;;;;;;5093496;28;20447;-76
2021/09/20 02:40:04;;;;;;;8.00;7.40;;;15.10;67.20;;;;;;5093578;28;20448;-75
2021/09/20 02:42:31;;;;;;;8.87;7.77;;;15.10;67.10;;;;;;5097634;28;20530;-75
2021/09/20 02:44:58;;;;;;;9.30;7.00;;;15.00;67.00;;;;;;5097598;28;20452;-75
2021/09/20 02:47:25;;;;;;;7.80;7.10;;;15.00;67.00;;;;;;5097428;28;20476;-75
2021/09/20 02:49:53;;;;;;;8.33;7.57;;;15.00;67.30;;;;;;5097419;28;20427;-75
2021/09/20 02:52:19;;;;;;;7.97;7.27;;;15.00;67.60;;;;;;5097203;28;20487;-75
2021/09/20 02:54:46;;;;;;;8.03;7.40;;;15.00;67.80;;;;;;5097257;28;20450;-74
2021/09/20 02:57:13;;;;;;;8.23;7.43;;;14.90;67.70;;;;;;5097247;28;20466;-75
2021/09/20 02:59:40;;;;;;;9.03;8.23;;;14.90;67.80;;;;;;5097232;28;20440;-75
2021/09/20 03:02:06;;;;;;;8.70;8.00;;;14.90;67.90;;;;;;5097563;28;20463;-75
2021/09/20 03:04:33;;;;;;;7.53;6.83;;;14.90;68.30;;;;;;5097773;28;20451;-76
2021/09/20 03:07:01;;;;;;;8.27;7.50;;;14.90;68.70;;;;;;5097061;28;20447;-75
2021/09/20 03:09:28;;;;;;;8.87;8.17;;;14.90;68.90;;;;;;5097287;28;20444;-76
2021/09/20 03:11:55;;;;;;;8.90;8.10;;;14.90;69.30;;;;;;5096664;28;20483;-75
2021/09/20 03:14:21;;;;;;;10.27;8.90;;;14.90;70.00;;;;;;5096936;28;20447;-75
2021/09/20 03:16:48;;;;;;;8.47;7.73;;;14.90;68.90;;;;;;5096853;28;20443;-75
2021/09/20 03:19:15;;;;;;;10.17;9.20;;;14.90;68.80;;;;;;5096847;28;20444;-75
2021/09/20 03:21:42;;;;;;;9.00;8.20;;;14.90;68.60;;;;;;5096445;28;20467;-74
2021/09/20 03:24:12;;;;;;;8.47;7.77;;;14.80;68.70;;;;;;5096468;28;20966;-75
2021/09/20 03:26:39;;;;;;;8.70;7.93;;;14.70;68.70;;;;;;5097024;28;20439;-75
2021/09/20 03:29:06;;;;;;;8.90;8.10;;;14.70;68.70;;;;;;5096626;28;20446;-75
2021/09/20 03:31:33;;;;;;;8.20;7.40;;;14.60;68.70;;;;;;5096441;28;20486;-75
2021/09/20 03:33:59;;;;;;;8.43;7.70;;;14.60;68.50;;;;;;5096272;28;20444;-75
2021/09/20 03:36:26;;;;;;;8.20;7.40;;;14.60;68.40;;;;;;5096637;28;20440;-76
2021/09/20 03:38:53;;;;;;;8.00;7.30;;;14.60;68.40;;;;;;5096589;28;20450;-75
2021/09/20 03:41:21;;;;;;;8.80;7.90;;;14.50;68.30;;;;;;5096401;28;20459;-75
2021/09/20 03:43:48;;;;;;;8.40;7.03;;;14.50;68.30;;;;;;5096301;28;20860;-75
2021/09/20 03:46:15;;;;;;;9.00;8.20;;;14.50;68.20;;;;;;5096296;28;20451;-75
2021/09/20 03:48:41;;;;;;;10.10;8.57;;;14.50;68.30;;;;;;5095895;28;20925;-75
2021/09/20 03:51:08;;;;;;;7.93;7.23;;;14.40;68.30;;;;;;5095810;28;20829;-75
2021/09/20 03:53:35;;;;;;;8.40;7.60;;;14.40;68.20;;;;;;5095182;28;20858;-75
2021/09/20 03:56:02;;;;;;;8.00;7.10;;;14.30;68.00;;;;;;5096103;28;20841;-75
2021/09/20 03:58:30;;;;;;;8.90;8.10;;;14.20;67.80;;;;;;5096296;28;20448;-76
2021/09/20 04:00:57;;;;;;;7.17;6.57;;;14.10;67.90;;;;;;5096181;28;20464;-76
2021/09/20 04:03:23;;;;;;;7.37;6.77;;;14.10;68.00;;;;;;5095991;28;20435;-76
2021/09/20 04:05:50;;;;;;;7.73;7.03;;;14.10;68.20;;;;;;5096174;28;20452;-76
2021/09/20 04:08:17;;;;;;;7.57;5.93;;;14.00;68.10;;;;;;5096051;28;20576;-76
2021/09/20 04:10:44;;;;;;;8.03;7.27;;;13.90;68.00;;;;;;5095704;28;20506;-76
2021/09/20 04:13:11;;;;;;;7.80;7.00;;;13.90;68.20;;;;;;5095924;28;20486;-76
2021/09/20 04:15:39;;;;;;;7.70;7.00;;;13.90;69.10;;;;;;5095655;28;20451;-76
2021/09/20 04:18:06;;;;;;;8.53;7.60;;;13.90;68.40;;;;;;5095669;28;20448;-76
2021/09/20 04:20:33;;;;;;;8.13;7.33;;;13.90;68.30;;;;;;5095753;28;20460;-76
2021/09/20 04:23:00;;;;;;;7.90;7.10;;;13.90;68.30;;;;;;5095696;28;20443;-76
2021/09/20 04:25:27;;;;;;;7.73;7.03;;;13.90;68.30;;;;;;5095520;28;20497;-76
2021/09/20 04:27:54;;;;;;;7.50;6.90;;;13.90;68.40;;;;;;5111217;22;20492;-70
2021/09/20 04:30:20;;;;;;;7.70;6.90;;;13.90;68.40;;;;;;5075224;28;20441;-70
2021/09/20 04:32:48;;;;;;;8.20;7.50;;;13.80;68.50;;;;;;5075051;28;20476;-70
2021/09/20 04:35:15;;;;;;;8.10;7.40;;;13.80;68.70;;;;;;5075088;28;20452;-70
2021/09/20 04:37:42;;;;;;;7.50;6.80;;;13.80;69.00;;;;;;5082303;28;20466;-70
2021/09/20 04:40:10;;;;;;;7.70;7.00;;;13.70;68.70;;;;;;5095375;28;20451;-70
2021/09/20 04:42:37;;;;;;;6.83;6.20;;;13.70;68.80;;;;;;5095299;28;20780;-70
2021/09/20 04:45:04;;;;;;;8.20;6.67;;;13.70;68.70;;;;;;5095169;28;20439;-70
2021/09/20 04:47:31;;;;;;;7.60;6.80;;;13.70;68.70;;;;;;5095605;28;20563;-70
2021/09/20 04:49:59;;;;;;;11.63;7.70;;;13.70;69.10;;;;;;5095156;28;20451;-70
2021/09/20 04:52:26;;;;;;;7.03;6.33;;;13.70;69.10;;;;;;5095023;28;20483;-70
2021/09/20 04:54:53;;;;;;;8.10;7.27;;;13.60;68.90;;;;;;5095083;28;20447;-69
2021/09/20 04:57:20;;;;;;;7.30;6.60;;;13.50;68.40;;;;;;5094926;28;20828;-70
2021/09/20 04:59:47;;;;;;;8.93;6.77;;;13.40;68.50;;;;;;5094632;28;20451;-70
2021/09/20 05:02:13;;;;;;;8.80;7.07;;;13.30;68.60;;;;;;5094917;28;20443;-69
2021/09/20 05:04:40;;;;;;;8.83;6.87;;;13.30;68.70;;;;;;5093899;28;20521;-70
2021/09/20 05:07:08;;;;;;;7.03;6.20;;;13.20;68.80;;;;;;5094658;28;20451;-69
2021/09/20 05:09:35;;;;;;;7.40;6.70;;;13.20;69.00;;;;;;5094708;28;20450;-69
2021/09/20 05:12:01;;;;;;;7.90;7.20;;;13.20;68.90;;;;;;5094877;28;20471;-73
2021/09/20 05:14:28;;;;;;;10.00;6.87;;;13.20;68.90;;;;;;5094922;28;20824;-69
2021/09/20 05:16:58;;;;;;;7.07;6.50;;;13.20;68.90;;;;;;5094635;28;20447;-69
2021/09/20 05:19:24;;;;;;;7.10;6.50;;;13.20;68.80;;;;;;5094672;28;20477;-69
2021/09/20 05:21:51;;;;;;;8.57;7.77;;;13.20;69.10;;;;;;5094500;28;20447;-69
2021/09/20 05:24:19;;;;;;;7.30;6.60;;;13.20;69.00;;;;;;5094468;28;20444;-69
2021/09/20 05:26:46;;;;;;;7.90;7.07;;;13.20;68.90;;;;;;5094090;28;20955;-69
2021/09/20 05:29:13;;;;;;;6.63;6.00;;;13.20;68.90;;;;;;5094061;28;20479;-69
2021/09/20 05:31:39;;;;;;;7.73;6.47;;;13.20;69.00;;;;;;5094274;28;20809;-69
2021/09/20 05:34:06;;;;;;;8.60;6.67;;;13.20;69.20;;;;;;5094304;28;20428;-69
2021/09/20 05:36:33;;;;;;;8.97;8.07;;;13.20;69.40;;;;;;5094246;28;20814;-69
2021/09/20 05:38:59;;;;;;;8.30;7.07;;;13.20;69.50;;;;;;5094097;28;20460;-69
2021/09/20 05:41:27;;;;;;;8.67;7.80;;;13.30;69.60;;;;;;5094263;28;20436;-70
2021/09/20 05:43:54;;;;;;;13.90;9.73;;;13.30;69.90;;;;;;5094033;28;20431;-70
2021/09/20 05:46:21;;;;;;;13.27;7.60;;;13.30;70.10;;;;;;5094097;28;20928;-70
2021/09/20 05:48:48;;;;;;;21.37;8.43;;;13.30;70.10;;;;;;5094485;28;20470;-70
2021/09/20 05:51:15;;;;;;;11.00;7.70;;;13.20;69.70;;;;;;5094462;28;20452;-70
2021/09/20 05:53:42;;;;;;;7.63;6.80;;;13.20;69.50;;;;;;5094373;28;20494;-70
2021/09/20 05:56:11;;;;;;;9.67;5.70;;;13.10;69.40;;;;;;5094795;28;20810;-71
2021/09/20 05:58:40;;;;;;;11.10;6.90;;;13.10;69.50;;;;;;5094244;28;20460;-71
2021/09/20 06:01:06;;;;;;;8.70;6.90;;;13.10;69.90;;;;;;5094089;28;20956;-71
2021/09/20 06:03:33;;;;;;;10.00;6.83;;;13.10;70.30;;;;;;5094435;28;20435;-71
2021/09/20 06:06:00;;;;;;;9.97;6.70;;;13.20;70.70;;;;;;5093851;28;20451;-71
2021/09/20 06:08:27;;;;;;;9.33;7.87;;;13.20;70.90;;;;;;5093916;28;20479;-71
2021/09/20 06:10:53;;;;;;;8.70;7.80;;;13.20;71.00;;;;;;5093875;28;20447;-71
2021/09/20 06:13:20;;;;;;;13.93;7.60;;;13.20;71.30;;;;;;5093541;28;21005;-71
2021/09/20 06:15:50;;;;;;;14.90;7.80;;;13.20;71.40;;;;;;5093505;28;20451;-71
2021/09/20 06:18:16;;;;;;;20.83;8.07;;;13.20;71.50;;;;;;5093599;28;20482;-71
2021/09/20 06:20:43;;;;;;;16.43;8.10;;;13.20;71.90;;;;;;5093814;28;20440;-71
2021/09/20 06:23:10;;;;;;;12.37;7.47;;;13.20;72.10;;;;;;5093454;28;20917;-71
2021/09/20 06:25:37;;;;;;;9.17;7.53;;;13.30;72.50;;;;;;5093705;28;20446;-71
2021/09/20 06:28:04;;;;;;;9.30;8.03;;;13.30;72.60;;;;;;5093279;28;20996;-71
2021/09/20 06:30:31;;;;;;;8.93;7.63;;;13.40;72.70;;;;;;5093406;28;20990;-71
2021/09/20 06:32:59;;;;;;;11.90;8.50;;;13.40;72.80;;;;;;5093960;28;20479;-70
2021/09/20 06:35:25;;;;;;;10.17;8.57;;;13.50;73.10;;;;;;5093297;28;20970;-70
2021/09/20 06:37:52;;;;;;;11.90;8.40;;;13.50;73.30;;;;;;5093493;28;20463;-70
2021/09/20 06:40:19;;;;;;;10.90;8.97;;;13.60;73.70;;;;;;5093590;28;20854;-70
2021/09/20 06:42:46;;;;;;;10.67;8.07;;;13.60;73.80;;;;;;5093591;28;20424;-70
2021/09/20 06:45:13;;;;;;;9.33;8.23;;;13.70;74.10;;;;;;5093543;28;20448;-71
2021/09/20 06:47:40;;;;;;;10.27;9.13;;;13.70;74.20;;;;;;5092962;28;20992;-71
2021/09/20 06:50:09;;;;;;;12.13;8.60;;;13.80;74.50;;;;;;5093393;28;20824;-71
2021/09/20 06:52:36;;;;;;;10.83;9.10;;;13.80;74.70;;;;;;5093442;28;20479;-71
2021/09/20 06:55:03;;;;;;;10.80;9.80;;;13.90;74.90;;;;;;5093345;28;20804;-71
2021/09/20 06:57:30;;;;;;;11.87;9.50;;;13.90;75.20;;;;;;5093266;28;20869;-71
2021/09/20 06:59:56;;;;;;;9.77;8.77;;;14.00;75.40;;;;;;5093945;28;20505;-71
2021/09/20 07:02:23;;;;;;;11.80;9.93;;;14.00;75.70;;;;;;5093263;28;20443;-71
2021/09/20 07:04:50;;;;;;;11.97;9.43;;;14.10;76.00;;;;;;5093196;28;20447;-71
2021/09/20 07:07:18;;;;;;;10.03;9.13;;;14.10;76.10;;;;;;5093096;28;20474;-71
2021/09/20 07:09:45;;;;;;;11.87;9.40;;;14.10;76.10;;;;;;5093153;28;20436;-71
2021/09/20 07:12:12;;;;;;;10.47;9.20;;;14.10;76.20;;;;;;5093576;28;20446;-71
2021/09/20 07:14:39;;;;;;;11.70;9.40;;;14.20;76.40;;;;;;5093091;28;20444;-71
2021/09/20 07:17:06;;;;;;;11.07;9.97;;;14.20;76.60;;;;;;5092682;28;20427;-71
2021/09/20 07:19:32;;;;;;;11.10;9.87;;;14.30;76.70;;;;;;5093029;28;20439;-71
2021/09/20 07:21:59;;;;;;;12.10;10.80;;;14.30;76.70;;;;;;5093047;28;20450;-71
2021/09/20 07:24:28;;;;;;;12.30;10.50;;;14.30;76.50;;;;;;5093171;28;20447;-71
2021/09/20 07:26:55;;;;;;;11.30;10.20;;;14.30;76.60;;;;;;5092647;28;20988;-71
2021/09/20 07:29:22;;;;;;;10.53;8.60;;;14.30;76.60;;;;;;5096738;28;20462;-71
2021/09/20 07:31:48;;;;;;;15.27;10.30;;;14.30;76.80;;;;;;5096689;28;20444;-71
2021/09/20 07:34:15;;;;;;;12.30;10.97;;;14.30;76.90;;;;;;5096420;28;20980;-71
2021/09/20 07:36:42;;;;;;;9.50;8.60;;;14.40;77.10;;;;;;5096792;28;20439;-71
2021/09/20 07:39:09;;;;;;;14.27;10.57;;;14.40;77.30;;;;;;5096568;28;20467;-71
2021/09/20 07:41:37;;;;;;;15.13;10.47;;;14.40;77.30;;;;;;5096876;28;20458;-71
2021/09/20 07:44:04;;;;;;;11.70;9.07;;;14.50;77.70;;;;;;5096925;28;20435;-71
2021/09/20 07:46:31;;;;;;;14.60;11.03;;;14.50;78.00;;;;;;5096552;28;20448;-72
2021/09/20 07:48:58;;;;;;;12.13;9.73;;;14.60;78.50;;;;;;5096580;28;20930;-72
2021/09/20 07:51:24;;;;;;;14.30;11.60;;;14.70;78.90;;;;;;5096217;28;20450;-72
2021/09/20 07:53:51;;;;;;;11.80;10.53;;;14.80;79.10;;;;;;5096117;28;21073;-72
2021/09/20 07:56:18;;;;;;;12.37;11.07;;;14.90;79.00;;;;;;5096295;28;20450;-72
2021/09/20 07:58:46;;;;;;;12.13;11.00;;;15.00;78.90;;;;;;5096259;28;20474;-72
2021/09/20 08:01:13;;;;;;;10.67;9.77;;;15.10;78.80;;;;;;5096198;28;20447;-72
2021/09/20 08:03:39;;;;;;;11.77;10.60;;;15.30;79.10;;;;;;5095808;28;20452;-72
2021/09/20 08:06:07;;;;;;;10.60;9.23;;;15.40;78.60;;;;;;5096005;28;20450;-72
2021/09/20 08:08:34;;;;;;;9.50;8.70;;;15.50;78.40;;;;;;5096998;28;20497;-71
2021/09/20 08:11:01;;;;;;;10.03;8.90;;;15.70;77.30;;;;;;5095907;28;20466;-71
2021/09/20 08:13:27;;;;;;;9.80;8.90;;;15.80;76.00;;;;;;5095620;28;20479;-71
2021/09/20 08:15:55;;;;;;;8.57;7.67;;;16.00;75.50;;;;;;5095914;28;20522;-71
2021/09/20 08:18:22;;;;;;;10.20;8.77;;;16.20;74.80;;;;;;5096026;28;20459;-71
2021/09/20 08:20:49;;;;;;;9.30;8.00;;;16.30;73.00;;;;;;5095431;28;20454;-71
2021/09/20 08:23:16;;;;;;;8.93;7.80;;;16.50;71.50;;;;;;5095792;28;20448;-71
2021/09/20 08:25:43;;;;;;;7.10;6.50;;;16.70;70.90;;;;;;5095632;28;20428;-71
2021/09/20 08:28:11;;;;;;;8.67;7.90;;;16.80;70.20;;;;;;5095237;28;20545;-71
2021/09/20 08:30:38;;;;;;;7.93;7.13;;;17.00;69.40;;;;;;5095714;28;20448;-71
2021/09/20 08:33:06;;;;;;;7.57;6.87;;;17.10;68.60;;;;;;5095447;28;20487;-71
2021/09/20 08:35:34;;;;;;;7.67;6.90;;;17.30;67.90;;;;;;5095859;28;20824;-71
2021/09/20 08:38:01;;;;;;;7.50;6.90;;;17.40;67.10;;;;;;5095147;28;20471;-71
2021/09/20 08:40:28;;;;;;;8.70;8.00;;;17.60;66.20;;;;;;5095296;28;20439;-71
2021/09/20 08:42:57;;;;;;;7.40;6.73;;;17.70;66.00;;;;;;5095583;28;20452;-71
2021/09/20 08:45:24;;;;;;;8.47;7.67;;;17.80;65.70;;;;;;5095273;28;20813;-71
2021/09/20 08:47:54;;;;;;;8.10;7.30;;;17.90;65.20;;;;;;5095227;28;20468;-71
2021/09/20 08:50:25;;;;;;;8.83;7.10;;;18.10;65.00;;;;;;5095089;28;20467;-71
2021/09/20 08:52:53;;;;;;;7.80;7.10;;;18.20;64.50;;;;;;5095217;28;20450;-71
2021/09/20 08:55:20;;;;;;;7.87;7.17;;;18.40;63.70;;;;;;5095014;28;20448;-71
2021/09/20 08:57:47;;;;;;;8.43;7.73;;;18.50;62.80;;;;;;5095666;28;20851;-71
2021/09/20 09:00:14;;;;;;;7.27;6.60;;;18.70;61.90;;;;;;5095004;28;20465;-71
2021/09/20 09:02:41;;;;;;;9.23;7.67;;;18.80;61.50;;;;;;5095169;28;20448;-71
2021/09/20 09:05:20;;;;;;;7.73;7.13;;;19.00;61.10;;;;;;5094897;28;20452;-71
2021/09/20 09:07:50;;;;;;;8.07;7.37;;;19.20;59.80;;;;;;5094870;28;20495;-71
2021/09/20 09:10:17;;;;;;;7.40;6.80;;;19.30;59.40;;;;;;5094802;28;20448;-71
2021/09/20 09:12:44;;;;;;;7.20;6.70;;;19.50;58.90;;;;;;5094774;28;20455;-71
2021/09/20 09:15:13;;;;;;;6.33;5.80;;;19.70;58.30;;;;;;5094661;28;20483;-71
2021/09/20 09:17:43;;;;;;;6.87;6.20;;;19.90;57.90;;;;;;5094307;28;21007;-71
2021/09/20 09:20:12;;;;;;;7.50;6.80;;;20.10;58.00;;;;;;5094614;28;20482;-71
2021/09/20 09:22:43;;;;;;;7.17;6.47;;;20.30;57.30;;;;;;5094595;28;20788;-71
2021/09/20 09:25:14;;;;;;;6.67;6.17;;;20.40;56.70;;;;;;5094585;28;20772;-71
2021/09/20 09:27:41;;;;;;;7.80;6.00;;;20.50;56.20;;;;;;5094336;28;20471;-71
2021/09/20 09:30:13;;;;;;;7.57;6.87;;;20.80;55.90;;;;;;5094360;28;20448;-71
2021/09/20 09:32:41;;;;;;;6.33;5.80;;;21.00;55.20;;;;;;5094389;28;20432;-71
2021/09/20 09:35:09;;;;;;;7.93;6.13;;;21.30;54.30;;;;;;5094180;28;20476;-71
2021/09/20 09:37:38;;;;;;;6.80;6.27;;;21.60;53.70;;;;;;5094202;28;20878;-71
2021/09/20 09:40:19;;;;;;;6.30;5.80;;;21.90;53.10;;;;;;5094232;28;20766;-71
2021/09/20 09:42:48;;;;;;;6.60;5.80;;;22.20;52.40;;;;;;5094479;28;20428;-71
2021/09/20 09:45:18;;;;;;;6.57;6.07;;;22.50;51.80;;;;;;5094156;28;20442;-71
2021/09/20 09:47:45;;;;;;;5.50;5.10;;;22.80;51.10;;;;;;5093945;28;20467;-72
2021/09/20 09:50:14;;;;;;;6.37;5.77;;;23.10;50.50;;;;;;5093565;28;20447;-72
2021/09/20 09:52:41;;;;;;;6.47;5.40;;;23.40;49.70;;;;;;5094009;28;20451;-72
2021/09/20 09:55:09;;;;;;;6.47;5.97;;;23.70;48.70;;;;;;5093541;28;20851;-72
2021/09/20 09:57:37;;;;;;;5.90;5.50;;;24.00;47.30;;;;;;5093643;28;21026;-72
2021/09/20 10:00:08;;;;;;;5.63;5.17;;;24.20;46.90;;;;;;5093540;28;20933;-72
2021/09/20 10:02:36;;;;;;;5.67;5.27;;;24.50;46.50;;;;;;5093921;28;20897;-72
2021/09/20 10:05:06;;;;;;;5.47;5.07;;;24.80;46.10;;;;;;5093821;28;20440;-72
2021/09/20 10:07:35;;;;;;;5.93;4.80;;;25.00;45.60;;;;;;5093852;28;20475;-72
2021/09/20 10:10:05;;;;;;;6.10;5.57;;;25.20;45.00;;;;;;5093790;28;20440;-72
2021/09/20 10:12:32;;;;;;;5.57;5.17;;;25.50;44.10;;;;;;5094113;28;20454;-72
2021/09/20 10:15:01;;;;;;;5.43;4.93;;;25.70;43.40;;;;;;5093704;28;20486;-72
2021/09/20 10:17:30;;;;;;;5.63;5.20;;;26.00;41.80;;;;;;5093758;28;20600;-72
2021/09/20 10:19:58;;;;;;;5.50;5.00;;;26.50;40.60;;;;;;5093487;28;20443;-72
2021/09/20 10:22:26;;;;;;;5.03;4.63;;;26.80;37.90;;;;;;5093748;28;20832;-72
2021/09/20 10:24:55;;;;;;;5.73;5.23;;;27.20;38.70;;;;;;5093330;28;20444;-72
2021/09/20 10:27:24;;;;;;;5.43;5.03;;;27.60;38.50;;;;;;5093316;28;20484;-72
2021/09/20 10:29:54;;;;;;;5.57;5.17;;;28.10;37.80;;;;;;5105729;22;20501;-76
2021/09/20 10:32:27;;;;;;;7.80;5.00;;;28.70;37.00;;;;;;5073337;28;20428;-75
2021/09/20 10:35:21;;;;;;;5.27;4.87;;;29.30;35.90;;;;;;5074140;28;20461;-75
2021/09/20 10:37:48;;;;;;;5.20;4.80;;;29.90;34.40;;;;;;5073396;28;20429;-75
2021/09/20 10:40:14;;;;;;;5.13;4.73;;;30.50;32.70;;;;;;5080164;28;20498;-76
2021/09/20 10:42:56;;;;;;;5.83;5.10;;;30.40;32.50;;;;;;5093502;28;20443;-76
2021/09/20 10:45:49;;;;;;;6.10;5.10;;;30.10;33.00;;;;;;5093538;28;20455;-75
2021/09/20 10:48:55;;;;;;;5.50;4.07;;;30.00;33.30;;;;;;5093466;28;20436;-75
2021/09/20 10:51:36;;;;;;;4.57;4.10;;;30.30;32.90;;;;;;5093190;28;21006;-75
2021/09/20 10:54:22;;;;;;;6.50;4.00;;;30.30;32.30;;;;;;5097544;28;20823;-75
2021/09/20 10:56:52;;;;;;;4.50;4.20;;;30.20;32.80;;;;;;5095559;28;20409;-75
2021/09/20 10:59:29;;;;;;;4.73;4.30;;;30.10;33.00;;;;;;5093402;28;20450;-76
2021/09/20 11:02:11;;;;;;;5.57;4.10;;;29.80;32.50;;;;;;5093446;28;20435;-76
2021/09/20 11:04:41;;;;;;;4.83;4.30;;;29.60;33.10;;;;;;5098471;28;20846;-75
2021/09/20 11:07:30;;;;;;;4.27;3.97;;;29.20;33.40;;;;;;5097566;28;20498;-77
2021/09/20 11:10:08;;;;;;;4.03;3.73;;;28.90;34.10;;;;;;5102276;28;20463;-77
2021/09/20 11:12:38;;;;;;;3.63;3.43;;;28.50;34.80;;;;;;5097785;28;20897;-77
2021/09/20 11:15:12;;;;;;;3.90;3.60;;;28.30;35.30;;;;;;5097323;28;20466;-77
2021/09/20 11:17:47;;;;;;;3.93;3.73;;;28.10;35.60;;;;;;5097729;28;20799;-77
2021/09/20 11:20:28;;;;;;;4.50;4.10;;;28.00;35.80;;;;;;5097078;28;20501;-77
2021/09/20 11:23:31;;;;;;;3.93;3.53;;;27.90;35.80;;;;;;5097029;28;20435;-77
2021/09/20 11:26:13;;;;;;;3.70;3.40;;;27.90;35.80;;;;;;5096973;28;20435;-77
2021/09/20 11:28:45;;;;;;;4.70;4.20;;;27.90;36.30;;;;;;5096800;28;20439;-77
2021/09/20 11:31:12;;;;;;;4.63;4.23;;;27.90;35.90;;;;;;5096522;28;20891;-77
2021/09/20 11:33:41;;;;;;;3.90;3.60;;;28.00;35.80;;;;;;5096420;28;20948;-77
2021/09/20 11:36:17;;;;;;;5.30;4.80;;;27.90;35.60;;;;;;5097354;28;20443;-77
2021/09/20 11:38:44;;;;;;;4.10;3.80;;;27.80;35.70;;;;;;5097216;28;20509;-77
2021/09/20 11:41:19;;;;;;;4.00;3.70;;;27.70;36.10;;;;;;5096535;28;20977;-77
2021/09/20 11:43:46;;;;;;;4.47;4.07;;;27.60;36.50;;;;;;5096496;28;20477;-77
2021/09/20 11:46:18;;;;;;;5.47;3.50;;;27.40;36.80;;;;;;5096771;28;20444;-77
2021/09/20 11:48:45;;;;;;;4.47;4.07;;;27.20;36.90;;;;;;5096241;28;20404;-77
2021/09/20 11:51:12;;;;;;;4.97;4.57;;;27.10;37.20;;;;;;5096422;28;20464;-77
2021/09/20 11:53:40;;;;;;;4.07;3.77;;;27.00;37.80;;;;;;5096095;28;20965;-77
2021/09/20 11:56:07;;;;;;;4.63;4.30;;;26.80;38.00;;;;;;5096250;28;20471;-77
2021/09/20 11:58:33;;;;;;;4.57;4.13;;;26.70;38.10;;;;;;5096265;28;20447;-77
2021/09/20 12:01:00;;;;;;;5.70;4.43;;;26.50;39.00;;;;;;5096435;28;20467;-77
2021/09/20 12:03:27;;;;;;;3.97;3.67;;;26.40;39.00;;;;;;5096163;28;20447;-77
2021/09/20 12:05:59;;;;;;;8.03;4.03;;;26.30;39.20;;;;;;5096075;28;20462;-77
2021/09/20 12:08:26;;;;;;;3.63;3.43;;;26.20;39.10;;;;;;5096149;28;20459;-76
2021/09/20 12:10:57;;;;;;;4.93;4.03;;;26.10;39.50;;;;;;5095951;28;20470;-77
2021/09/20 12:13:28;;;;;;;4.00;3.70;;;26.20;39.10;;;;;;5095433;28;20443;-77
2021/09/20 12:15:56;;;;;;;4.30;4.00;;;26.60;38.90;;;;;;5095888;28;20468;-77
2021/09/20 12:18:26;;;;;;;4.10;3.80;;;27.00;38.50;;;;;;5095773;28;20486;-77
2021/09/20 12:20:55;;;;;;;4.03;3.73;;;27.50;37.90;;;;;;5095891;28;20468;-77
2021/09/20 12:23:25;;;;;;;4.37;4.00;;;28.20;36.30;;;;;;5096328;28;20439;-77
2021/09/20 12:25:56;;;;;;;6.53;4.10;;;28.50;35.60;;;;;;5095915;28;20463;-77
2021/09/20 12:28:25;;;;;;;3.90;3.60;;;28.80;34.00;;;;;;5096069;28;20471;-77
2021/09/20 12:30:59;;;;;;;4.00;3.60;;;29.00;34.10;;;;;;5095646;28;20507;-77
2021/09/20 12:33:27;;;;;;;3.97;3.67;;;29.10;33.90;;;;;;5096135;28;20437;-77
2021/09/20 12:35:54;;;;;;;4.17;3.87;;;29.20;34.00;;;;;;5095841;28;20823;-77
2021/09/20 12:38:30;;;;;;;4.10;3.70;;;29.40;33.70;;;;;;5095865;28;20532;-78
2021/09/20 12:41:01;;;;;;;4.90;4.40;;;29.70;33.40;;;;;;5095685;28;20967;-78
2021/09/20 12:43:33;;;;;;;3.90;3.70;;;30.20;31.80;;;;;;5095962;28;20436;-77
2021/09/20 12:46:12;;;;;;;4.47;4.17;;;30.60;31.20;;;;;;5096527;28;20789;-77
2021/09/20 12:48:43;;;;;;;5.10;4.00;;;30.90;30.00;;;;;;5095428;28;20803;-77
2021/09/20 12:51:11;;;;;;;4.57;4.27;;;30.90;30.20;;;;;;5095581;28;20972;-77